sensor_id;sensor_type;location;lat;lon;timestamp;P1;durP1;ratioP1;P2;durP2;ratioP2
4074;SDS011;2052;53.522;9.806;2023-03-23T00:01:37;17.63;;;8.70;;
4074;SDS011;2052;53.522;9.806;2023-03-23T00:04:04;14.53;;;8.33;;
4074;SDS011;2052;53.522;9.806;2023-03-23T00:06:32;19.10;;;10.13;;
4074;SDS011;2052;53.522;9.806;2023-03-23T00:09:01;18.50;;;10.33;;
4074;SDS011;2052;53.522;9.806;2023-03-23T00:11:29;18.70;;;10.47;;
4074;SDS011;2052;53.522;9.806;2023-03-23T00:13:57;22.10;;;11.80;;
4074;SDS011;2052;53.522;9.806;2023-03-23T00:16:26;17.87;;;10.93;;
4074;SDS011;2052;53.522;9.806;2023-03-23T00:18:55;19.43;;;11.67;;
4074;SDS011;2052;53.522;9.806;2023-03-23T00:21:23;21.60;;;11.93;;
4074;SDS011;2052;53.522;9.806;2023-03-23T00:23:59;20.07;;;11.80;;
4074;SDS011;2052;53.522;9.806;2023-03-23T00:26:27;22.93;;;13.63;;
4074;SDS011;2052;53.522;9.806;2023-03-23T00:28:58;23.13;;;13.67;;
4074;SDS011;2052;53.522;9.806;2023-03-23T00:31:26;25.77;;;14.80;;
4074;SDS011;2052;53.522;9.806;2023-03-23T00:33:56;26.50;;;14.53;;
4074;SDS011;2052;53.522;9.806;2023-03-23T00:36:26;23.07;;;14.10;;
4074;SDS011;2052;53.522;9.806;2023-03-23T00:38:53;26.43;;;15.17;;
4074;SDS011;2052;53.522;9.806;2023-03-23T00:41:24;24.70;;;15.17;;
4074;SDS011;2052;53.522;9.806;2023-03-23T00:43:52;26.53;;;15.20;;
4074;SDS011;2052;53.522;9.806;2023-03-23T00:46:18;30.03;;;14.00;;
4074;SDS011;2052;53.522;9.806;2023-03-23T00:48:45;26.30;;;14.97;;
4074;SDS011;2052;53.522;9.806;2023-03-23T00:51:12;30.47;;;15.57;;
4074;SDS011;2052;53.522;9.806;2023-03-23T00:53:39;27.30;;;15.33;;
4074;SDS011;2052;53.522;9.806;2023-03-23T00:56:07;29.97;;;15.50;;
4074;SDS011;2052;53.522;9.806;2023-03-23T00:58:35;27.17;;;14.30;;
4074;SDS011;2052;53.522;9.806;2023-03-23T01:01:02;24.03;;;14.90;;
4074;SDS011;2052;53.522;9.806;2023-03-23T01:03:29;30.07;;;16.83;;
4074;SDS011;2052;53.522;9.806;2023-03-23T01:05:56;27.07;;;15.23;;
4074;SDS011;2052;53.522;9.806;2023-03-23T01:08:23;27.57;;;15.10;;
4074;SDS011;2052;53.522;9.806;2023-03-23T01:10:50;28.40;;;16.60;;
4074;SDS011;2052;53.522;9.806;2023-03-23T01:13:16;26.57;;;15.63;;
4074;SDS011;2052;53.522;9.806;2023-03-23T01:15:45;26.43;;;15.50;;
4074;SDS011;2052;53.522;9.806;2023-03-23T01:18:12;26.07;;;15.07;;
4074;SDS011;2052;53.522;9.806;2023-03-23T01:20:39;27.20;;;14.63;;
4074;SDS011;2052;53.522;9.806;2023-03-23T01:23:07;28.77;;;16.83;;
4074;SDS011;2052;53.522;9.806;2023-03-23T01:25:35;32.27;;;16.47;;
4074;SDS011;2052;53.522;9.806;2023-03-23T01:28:02;30.50;;;16.70;;
4074;SDS011;2052;53.522;9.806;2023-03-23T01:30:31;26.50;;;15.43;;
4074;SDS011;2052;53.522;9.806;2023-03-23T01:32:59;27.70;;;16.50;;
4074;SDS011;2052;53.522;9.806;2023-03-23T01:35:25;26.50;;;16.27;;
4074;SDS011;2052;53.522;9.806;2023-03-23T01:37:52;31.37;;;16.07;;
4074;SDS011;2052;53.522;9.806;2023-03-23T01:40:19;41.30;;;18.63;;
4074;SDS011;2052;53.522;9.806;2023-03-23T01:42:45;32.70;;;17.60;;
4074;SDS011;2052;53.522;9.806;2023-03-23T01:45:23;29.50;;;16.93;;
4074;SDS011;2052;53.522;9.806;2023-03-23T01:47:54;34.10;;;17.23;;
4074;SDS011;2052;53.522;9.806;2023-03-23T01:50:25;34.40;;;16.60;;
4074;SDS011;2052;53.522;9.806;2023-03-23T01:52:53;25.33;;;16.43;;
4074;SDS011;2052;53.522;9.806;2023-03-23T01:55:21;28.13;;;17.13;;
4074;SDS011;2052;53.522;9.806;2023-03-23T01:57:48;29.77;;;16.77;;
4074;SDS011;2052;53.522;9.806;2023-03-23T02:00:15;35.20;;;16.97;;
4074;SDS011;2052;53.522;9.806;2023-03-23T02:02:43;26.30;;;15.47;;
4074;SDS011;2052;53.522;9.806;2023-03-23T02:05:13;26.70;;;16.17;;
4074;SDS011;2052;53.522;9.806;2023-03-23T02:07:43;33.00;;;16.00;;
4074;SDS011;2052;53.522;9.806;2023-03-23T02:10:10;25.07;;;15.47;;
4074;SDS011;2052;53.522;9.806;2023-03-23T02:12:37;29.13;;;16.97;;
4074;SDS011;2052;53.522;9.806;2023-03-23T02:15:04;23.47;;;14.53;;
4074;SDS011;2052;53.522;9.806;2023-03-23T02:17:33;29.30;;;17.73;;
4074;SDS011;2052;53.522;9.806;2023-03-23T02:20:07;28.50;;;15.77;;
4074;SDS011;2052;53.522;9.806;2023-03-23T02:22:46;26.67;;;15.20;;
4074;SDS011;2052;53.522;9.806;2023-03-23T02:25:25;25.67;;;15.20;;
4074;SDS011;2052;53.522;9.806;2023-03-23T02:28:05;27.30;;;16.47;;
4074;SDS011;2052;53.522;9.806;2023-03-23T02:30:55;24.80;;;14.87;;
4074;SDS011;2052;53.522;9.806;2023-03-23T02:33:36;27.20;;;15.20;;
4074;SDS011;2052;53.522;9.806;2023-03-23T02:36:10;26.03;;;15.90;;
4074;SDS011;2052;53.522;9.806;2023-03-23T02:38:41;25.40;;;14.70;;
4074;SDS011;2052;53.522;9.806;2023-03-23T02:41:15;26.70;;;15.07;;
4074;SDS011;2052;53.522;9.806;2023-03-23T02:43:44;24.10;;;15.60;;
4074;SDS011;2052;53.522;9.806;2023-03-23T02:46:12;24.20;;;14.00;;
4074;SDS011;2052;53.522;9.806;2023-03-23T02:48:47;24.17;;;15.57;;
4074;SDS011;2052;53.522;9.806;2023-03-23T02:51:16;26.80;;;16.80;;
4074;SDS011;2052;53.522;9.806;2023-03-23T02:53:44;25.47;;;15.40;;
4074;SDS011;2052;53.522;9.806;2023-03-23T02:56:11;27.63;;;15.80;;
4074;SDS011;2052;53.522;9.806;2023-03-23T02:58:39;26.23;;;15.33;;
4074;SDS011;2052;53.522;9.806;2023-03-23T03:04:29;27.07;;;16.17;;
4074;SDS011;2052;53.522;9.806;2023-03-23T03:09:46;27.13;;;15.70;;
4074;SDS011;2052;53.522;9.806;2023-03-23T03:12:16;26.40;;;16.07;;
4074;SDS011;2052;53.522;9.806;2023-03-23T03:14:48;25.13;;;16.30;;
4074;SDS011;2052;53.522;9.806;2023-03-23T03:17:19;25.63;;;16.10;;
4074;SDS011;2052;53.522;9.806;2023-03-23T03:19:49;26.70;;;16.70;;
4074;SDS011;2052;53.522;9.806;2023-03-23T03:22:17;27.57;;;16.07;;
4074;SDS011;2052;53.522;9.806;2023-03-23T03:24:45;25.47;;;15.53;;
4074;SDS011;2052;53.522;9.806;2023-03-23T03:27:13;25.40;;;16.70;;
4074;SDS011;2052;53.522;9.806;2023-03-23T03:29:43;25.80;;;16.50;;
4074;SDS011;2052;53.522;9.806;2023-03-23T03:32:13;25.73;;;16.33;;
4074;SDS011;2052;53.522;9.806;2023-03-23T03:34:42;27.80;;;17.03;;
4074;SDS011;2052;53.522;9.806;2023-03-23T03:37:10;27.30;;;17.07;;
4074;SDS011;2052;53.522;9.806;2023-03-23T03:39:37;25.93;;;17.27;;
4074;SDS011;2052;53.522;9.806;2023-03-23T03:42:04;23.50;;;14.83;;
4074;SDS011;2052;53.522;9.806;2023-03-23T03:44:31;23.10;;;16.37;;
4074;SDS011;2052;53.522;9.806;2023-03-23T03:46:59;27.93;;;16.57;;
4074;SDS011;2052;53.522;9.806;2023-03-23T03:49:25;23.83;;;15.97;;
4074;SDS011;2052;53.522;9.806;2023-03-23T03:51:52;28.50;;;16.20;;
4074;SDS011;2052;53.522;9.806;2023-03-23T03:54:20;25.87;;;16.73;;
4074;SDS011;2052;53.522;9.806;2023-03-23T03:56:47;24.93;;;15.20;;
4074;SDS011;2052;53.522;9.806;2023-03-23T03:59:16;22.90;;;15.03;;
4074;SDS011;2052;53.522;9.806;2023-03-23T04:01:43;20.27;;;14.10;;
4074;SDS011;2052;53.522;9.806;2023-03-23T04:04:10;24.40;;;15.43;;
4074;SDS011;2052;53.522;9.806;2023-03-23T04:06:36;26.20;;;15.50;;
4074;SDS011;2052;53.522;9.806;2023-03-23T04:09:03;26.07;;;16.20;;
4074;SDS011;2052;53.522;9.806;2023-03-23T04:11:34;23.63;;;15.03;;
4074;SDS011;2052;53.522;9.806;2023-03-23T04:14:01;27.77;;;15.73;;
4074;SDS011;2052;53.522;9.806;2023-03-23T04:16:27;22.70;;;14.63;;
4074;SDS011;2052;53.522;9.806;2023-03-23T04:18:55;20.87;;;14.47;;
4074;SDS011;2052;53.522;9.806;2023-03-23T04:21:22;21.97;;;14.47;;
4074;SDS011;2052;53.522;9.806;2023-03-23T04:23:48;26.07;;;14.50;;
4074;SDS011;2052;53.522;9.806;2023-03-23T04:26:15;26.00;;;14.77;;
4074;SDS011;2052;53.522;9.806;2023-03-23T04:28:44;22.97;;;15.00;;
4074;SDS011;2052;53.522;9.806;2023-03-23T04:31:12;24.97;;;15.67;;
4074;SDS011;2052;53.522;9.806;2023-03-23T04:33:39;26.47;;;15.67;;
4074;SDS011;2052;53.522;9.806;2023-03-23T04:36:06;22.03;;;14.00;;
4074;SDS011;2052;53.522;9.806;2023-03-23T04:38:33;23.30;;;14.97;;
4074;SDS011;2052;53.522;9.806;2023-03-23T04:41:00;21.33;;;15.17;;
4074;SDS011;2052;53.522;9.806;2023-03-23T04:43:27;30.83;;;16.63;;
4074;SDS011;2052;53.522;9.806;2023-03-23T04:45:56;29.67;;;17.67;;
4074;SDS011;2052;53.522;9.806;2023-03-23T04:48:26;25.30;;;17.67;;
4074;SDS011;2052;53.522;9.806;2023-03-23T04:50:55;28.30;;;15.50;;
4074;SDS011;2052;53.522;9.806;2023-03-23T04:53:24;28.90;;;18.10;;
4074;SDS011;2052;53.522;9.806;2023-03-23T04:55:51;31.90;;;15.30;;
4074;SDS011;2052;53.522;9.806;2023-03-23T04:58:18;29.63;;;17.03;;
4074;SDS011;2052;53.522;9.806;2023-03-23T05:00:45;24.23;;;16.50;;
4074;SDS011;2052;53.522;9.806;2023-03-23T05:03:16;27.53;;;16.63;;
4074;SDS011;2052;53.522;9.806;2023-03-23T05:05:43;22.97;;;16.17;;
4074;SDS011;2052;53.522;9.806;2023-03-23T05:08:12;23.43;;;15.47;;
4074;SDS011;2052;53.522;9.806;2023-03-23T05:10:39;20.80;;;14.90;;
4074;SDS011;2052;53.522;9.806;2023-03-23T05:13:05;23.40;;;14.80;;
4074;SDS011;2052;53.522;9.806;2023-03-23T05:15:32;26.03;;;16.30;;
4074;SDS011;2052;53.522;9.806;2023-03-23T05:17:59;23.00;;;15.40;;
4074;SDS011;2052;53.522;9.806;2023-03-23T05:20:27;26.10;;;14.37;;
4074;SDS011;2052;53.522;9.806;2023-03-23T05:22:55;21.53;;;15.07;;
4074;SDS011;2052;53.522;9.806;2023-03-23T05:25:22;26.30;;;15.13;;
4074;SDS011;2052;53.522;9.806;2023-03-23T05:27:49;27.57;;;15.83;;
4074;SDS011;2052;53.522;9.806;2023-03-23T05:30:18;23.67;;;14.13;;
4074;SDS011;2052;53.522;9.806;2023-03-23T05:32:45;22.60;;;14.70;;
4074;SDS011;2052;53.522;9.806;2023-03-23T05:35:15;23.20;;;14.60;;
4074;SDS011;2052;53.522;9.806;2023-03-23T05:37:44;22.70;;;14.60;;
4074;SDS011;2052;53.522;9.806;2023-03-23T05:40:11;28.07;;;13.63;;
4074;SDS011;2052;53.522;9.806;2023-03-23T05:42:38;20.57;;;13.70;;
4074;SDS011;2052;53.522;9.806;2023-03-23T05:45:06;23.80;;;13.70;;
4074;SDS011;2052;53.522;9.806;2023-03-23T05:47:36;23.03;;;14.87;;
4074;SDS011;2052;53.522;9.806;2023-03-23T05:50:03;18.93;;;13.27;;
4074;SDS011;2052;53.522;9.806;2023-03-23T05:52:31;21.77;;;13.67;;
4074;SDS011;2052;53.522;9.806;2023-03-23T05:55:02;17.90;;;12.30;;
4074;SDS011;2052;53.522;9.806;2023-03-23T05:57:29;18.97;;;13.03;;
4074;SDS011;2052;53.522;9.806;2023-03-23T05:59:56;19.13;;;12.43;;
4074;SDS011;2052;53.522;9.806;2023-03-23T06:02:24;15.00;;;11.30;;
4074;SDS011;2052;53.522;9.806;2023-03-23T06:04:53;15.70;;;11.40;;
4074;SDS011;2052;53.522;9.806;2023-03-23T06:07:22;18.53;;;12.40;;
4074;SDS011;2052;53.522;9.806;2023-03-23T06:09:49;22.63;;;12.50;;
4074;SDS011;2052;53.522;9.806;2023-03-23T06:12:18;18.57;;;11.50;;
4074;SDS011;2052;53.522;9.806;2023-03-23T06:14:45;18.17;;;11.50;;
4074;SDS011;2052;53.522;9.806;2023-03-23T06:17:13;15.33;;;10.17;;
4074;SDS011;2052;53.522;9.806;2023-03-23T06:19:40;14.50;;;9.93;;
4074;SDS011;2052;53.522;9.806;2023-03-23T06:22:07;18.40;;;9.80;;
4074;SDS011;2052;53.522;9.806;2023-03-23T06:24:33;16.10;;;10.73;;
4074;SDS011;2052;53.522;9.806;2023-03-23T06:27:00;18.80;;;11.20;;
4074;SDS011;2052;53.522;9.806;2023-03-23T06:29:29;13.90;;;10.57;;
4074;SDS011;2052;53.522;9.806;2023-03-23T06:31:57;13.57;;;9.53;;
4074;SDS011;2052;53.522;9.806;2023-03-23T06:34:25;19.57;;;9.90;;
4074;SDS011;2052;53.522;9.806;2023-03-23T06:36:51;14.80;;;10.57;;
4074;SDS011;2052;53.522;9.806;2023-03-23T06:39:20;11.60;;;8.57;;
4074;SDS011;2052;53.522;9.806;2023-03-23T06:41:47;11.53;;;8.00;;
4074;SDS011;2052;53.522;9.806;2023-03-23T06:44:14;12.20;;;7.90;;
4074;SDS011;2052;53.522;9.806;2023-03-23T06:46:42;14.80;;;7.70;;
4074;SDS011;2052;53.522;9.806;2023-03-23T06:49:09;12.90;;;7.37;;
4074;SDS011;2052;53.522;9.806;2023-03-23T06:51:35;16.90;;;8.13;;
4074;SDS011;2052;53.522;9.806;2023-03-23T06:54:02;11.67;;;7.90;;
4074;SDS011;2052;53.522;9.806;2023-03-23T06:56:29;10.57;;;7.33;;
4074;SDS011;2052;53.522;9.806;2023-03-23T06:58:56;8.20;;;6.40;;
4074;SDS011;2052;53.522;9.806;2023-03-23T07:01:24;13.00;;;6.67;;
4074;SDS011;2052;53.522;9.806;2023-03-23T07:03:54;11.03;;;6.30;;
4074;SDS011;2052;53.522;9.806;2023-03-23T07:06:22;6.83;;;5.70;;
4074;SDS011;2052;53.522;9.806;2023-03-23T07:08:52;7.00;;;5.30;;
4074;SDS011;2052;53.522;9.806;2023-03-23T07:11:19;8.43;;;5.33;;
4074;SDS011;2052;53.522;9.806;2023-03-23T07:13:46;6.67;;;4.87;;
4074;SDS011;2052;53.522;9.806;2023-03-23T07:16:13;6.27;;;4.73;;
4074;SDS011;2052;53.522;9.806;2023-03-23T07:18:40;6.47;;;5.13;;
4074;SDS011;2052;53.522;9.806;2023-03-23T07:21:08;8.90;;;4.43;;
4074;SDS011;2052;53.522;9.806;2023-03-23T07:23:35;9.53;;;5.20;;
4074;SDS011;2052;53.522;9.806;2023-03-23T07:26:02;9.50;;;5.40;;
4074;SDS011;2052;53.522;9.806;2023-03-23T07:28:29;6.07;;;5.10;;
4074;SDS011;2052;53.522;9.806;2023-03-23T07:30:56;8.30;;;4.40;;
4074;SDS011;2052;53.522;9.806;2023-03-23T07:33:23;4.83;;;3.70;;
4074;SDS011;2052;53.522;9.806;2023-03-23T07:35:49;5.40;;;3.83;;
4074;SDS011;2052;53.522;9.806;2023-03-23T07:38:18;7.67;;;4.17;;
4074;SDS011;2052;53.522;9.806;2023-03-23T07:40:45;6.80;;;4.80;;
4074;SDS011;2052;53.522;9.806;2023-03-23T07:43:12;5.57;;;4.30;;
4074;SDS011;2052;53.522;9.806;2023-03-23T07:45:38;6.63;;;4.87;;
4074;SDS011;2052;53.522;9.806;2023-03-23T07:48:05;5.10;;;4.60;;
4074;SDS011;2052;53.522;9.806;2023-03-23T07:50:32;10.40;;;5.50;;
4074;SDS011;2052;53.522;9.806;2023-03-23T07:53:00;13.33;;;6.40;;
4074;SDS011;2052;53.522;9.806;2023-03-23T07:55:28;11.60;;;5.63;;
4074;SDS011;2052;53.522;9.806;2023-03-23T07:57:54;7.80;;;6.50;;
4074;SDS011;2052;53.522;9.806;2023-03-23T08:00:22;8.33;;;6.70;;
4074;SDS011;2052;53.522;9.806;2023-03-23T08:02:51;7.40;;;6.03;;
4074;SDS011;2052;53.522;9.806;2023-03-23T08:05:20;7.10;;;6.40;;
4074;SDS011;2052;53.522;9.806;2023-03-23T08:07:47;8.87;;;6.70;;
4074;SDS011;2052;53.522;9.806;2023-03-23T08:10:15;10.30;;;7.60;;
4074;SDS011;2052;53.522;9.806;2023-03-23T08:12:44;9.23;;;7.27;;
4074;SDS011;2052;53.522;9.806;2023-03-23T08:15:13;9.90;;;7.03;;
4074;SDS011;2052;53.522;9.806;2023-03-23T08:17:40;10.40;;;7.17;;
4074;SDS011;2052;53.522;9.806;2023-03-23T08:20:08;11.00;;;8.03;;
4074;SDS011;2052;53.522;9.806;2023-03-23T08:22:38;7.43;;;5.43;;
4074;SDS011;2052;53.522;9.806;2023-03-23T08:25:06;11.97;;;6.80;;
4074;SDS011;2052;53.522;9.806;2023-03-23T08:27:35;8.23;;;4.30;;
4074;SDS011;2052;53.522;9.806;2023-03-23T08:30:03;9.03;;;3.20;;
4074;SDS011;2052;53.522;9.806;2023-03-23T08:32:32;6.10;;;3.20;;
4074;SDS011;2052;53.522;9.806;2023-03-23T08:34:59;10.10;;;3.40;;
4074;SDS011;2052;53.522;9.806;2023-03-23T08:37:26;3.90;;;2.23;;
4074;SDS011;2052;53.522;9.806;2023-03-23T08:39:53;8.13;;;4.40;;
4074;SDS011;2052;53.522;9.806;2023-03-23T08:42:20;7.27;;;3.93;;
4074;SDS011;2052;53.522;9.806;2023-03-23T08:44:47;8.90;;;5.87;;
4074;SDS011;2052;53.522;9.806;2023-03-23T08:47:15;10.73;;;5.37;;
4074;SDS011;2052;53.522;9.806;2023-03-23T08:49:42;9.23;;;4.80;;
4074;SDS011;2052;53.522;9.806;2023-03-23T08:52:10;11.10;;;4.67;;
4074;SDS011;2052;53.522;9.806;2023-03-23T08:54:37;8.77;;;4.30;;
4074;SDS011;2052;53.522;9.806;2023-03-23T08:57:04;7.93;;;4.13;;
4074;SDS011;2052;53.522;9.806;2023-03-23T08:59:30;9.40;;;3.90;;
4074;SDS011;2052;53.522;9.806;2023-03-23T09:01:57;5.37;;;3.67;;
4074;SDS011;2052;53.522;9.806;2023-03-23T09:04:25;11.20;;;5.50;;
4074;SDS011;2052;53.522;9.806;2023-03-23T09:06:51;5.80;;;2.90;;
4074;SDS011;2052;53.522;9.806;2023-03-23T09:09:18;5.63;;;3.43;;
4074;SDS011;2052;53.522;9.806;2023-03-23T09:11:46;7.50;;;2.57;;
4074;SDS011;2052;53.522;9.806;2023-03-23T09:14:12;8.73;;;4.33;;
4074;SDS011;2052;53.522;9.806;2023-03-23T09:16:39;8.00;;;3.60;;
4074;SDS011;2052;53.522;9.806;2023-03-23T09:19:06;11.33;;;2.97;;
4074;SDS011;2052;53.522;9.806;2023-03-23T09:21:35;6.00;;;2.83;;
4074;SDS011;2052;53.522;9.806;2023-03-23T09:24:02;11.27;;;3.63;;
4074;SDS011;2052;53.522;9.806;2023-03-23T09:26:29;18.20;;;5.10;;
4074;SDS011;2052;53.522;9.806;2023-03-23T09:28:56;8.47;;;2.83;;
4074;SDS011;2052;53.522;9.806;2023-03-23T09:31:23;20.27;;;6.57;;
4074;SDS011;2052;53.522;9.806;2023-03-23T09:33:52;11.73;;;4.67;;
4074;SDS011;2052;53.522;9.806;2023-03-23T09:36:21;14.67;;;4.60;;
4074;SDS011;2052;53.522;9.806;2023-03-23T09:38:52;6.10;;;2.93;;
4074;SDS011;2052;53.522;9.806;2023-03-23T09:41:33;19.63;;;5.00;;
4074;SDS011;2052;53.522;9.806;2023-03-23T09:44:21;10.27;;;3.20;;
4074;SDS011;2052;53.522;9.806;2023-03-23T09:46:54;8.37;;;3.70;;
4074;SDS011;2052;53.522;9.806;2023-03-23T09:49:25;10.93;;;2.60;;
4074;SDS011;2052;53.522;9.806;2023-03-23T09:51:54;11.73;;;3.90;;
4074;SDS011;2052;53.522;9.806;2023-03-23T09:54:26;7.90;;;2.40;;
4074;SDS011;2052;53.522;9.806;2023-03-23T09:56:57;5.37;;;3.00;;
4074;SDS011;2052;53.522;9.806;2023-03-23T09:59:25;7.83;;;2.47;;
4074;SDS011;2052;53.522;9.806;2023-03-23T10:01:55;8.33;;;2.70;;
4074;SDS011;2052;53.522;9.806;2023-03-23T10:04:28;8.13;;;2.50;;
4074;SDS011;2052;53.522;9.806;2023-03-23T10:06:58;9.87;;;2.70;;
4074;SDS011;2052;53.522;9.806;2023-03-23T10:09:27;7.50;;;2.13;;
4074;SDS011;2052;53.522;9.806;2023-03-23T10:11:56;9.30;;;2.53;;
4074;SDS011;2052;53.522;9.806;2023-03-23T10:14:34;9.40;;;2.67;;
4074;SDS011;2052;53.522;9.806;2023-03-23T10:17:18;8.20;;;2.70;;
4074;SDS011;2052;53.522;9.806;2023-03-23T10:19:53;13.60;;;3.17;;
4074;SDS011;2052;53.522;9.806;2023-03-23T10:22:25;14.27;;;2.90;;
4074;SDS011;2052;53.522;9.806;2023-03-23T10:24:57;5.80;;;2.87;;
4074;SDS011;2052;53.522;9.806;2023-03-23T10:27:31;8.43;;;2.70;;
4074;SDS011;2052;53.522;9.806;2023-03-23T10:30:03;8.60;;;3.27;;
4074;SDS011;2052;53.522;9.806;2023-03-23T10:32:41;8.87;;;2.30;;
4074;SDS011;2052;53.522;9.806;2023-03-23T10:35:11;8.80;;;2.53;;
4074;SDS011;2052;53.522;9.806;2023-03-23T10:37:41;4.97;;;2.80;;
4074;SDS011;2052;53.522;9.806;2023-03-23T10:42:41;11.73;;;3.43;;
4074;SDS011;2052;53.522;9.806;2023-03-23T10:45:12;7.20;;;2.60;;
4074;SDS011;2052;53.522;9.806;2023-03-23T10:47:43;12.27;;;3.10;;
4074;SDS011;2052;53.522;9.806;2023-03-23T10:50:13;8.40;;;2.87;;
4074;SDS011;2052;53.522;9.806;2023-03-23T10:52:42;11.23;;;2.83;;
4074;SDS011;2052;53.522;9.806;2023-03-23T10:55:10;11.23;;;3.00;;
4074;SDS011;2052;53.522;9.806;2023-03-23T10:57:41;6.23;;;2.43;;
4074;SDS011;2052;53.522;9.806;2023-03-23T11:00:16;14.10;;;3.20;;
4074;SDS011;2052;53.522;9.806;2023-03-23T11:02:45;8.47;;;2.60;;
4074;SDS011;2052;53.522;9.806;2023-03-23T11:05:16;6.80;;;3.00;;
4074;SDS011;2052;53.522;9.806;2023-03-23T11:07:48;17.33;;;3.30;;
4074;SDS011;2052;53.522;9.806;2023-03-23T11:10:20;13.17;;;4.33;;
4074;SDS011;2052;53.522;9.806;2023-03-23T11:12:53;12.33;;;4.00;;
4074;SDS011;2052;53.522;9.806;2023-03-23T11:15:37;9.93;;;3.90;;
4074;SDS011;2052;53.522;9.806;2023-03-23T11:18:06;7.67;;;3.07;;
4074;SDS011;2052;53.522;9.806;2023-03-23T11:20:35;11.33;;;3.20;;
4074;SDS011;2052;53.522;9.806;2023-03-23T11:23:08;8.67;;;3.13;;
4074;SDS011;2052;53.522;9.806;2023-03-23T11:25:50;8.60;;;3.40;;
4074;SDS011;2052;53.522;9.806;2023-03-23T11:28:21;18.00;;;4.23;;
4074;SDS011;2052;53.522;9.806;2023-03-23T11:30:53;11.00;;;4.50;;
4074;SDS011;2052;53.522;9.806;2023-03-23T11:33:20;11.83;;;2.97;;
4074;SDS011;2052;53.522;9.806;2023-03-23T11:35:50;8.27;;;3.83;;
4074;SDS011;2052;53.522;9.806;2023-03-23T11:38:19;7.83;;;3.97;;
4074;SDS011;2052;53.522;9.806;2023-03-23T11:40:48;13.53;;;4.37;;
4074;SDS011;2052;53.522;9.806;2023-03-23T11:43:18;13.33;;;4.23;;
4074;SDS011;2052;53.522;9.806;2023-03-23T11:45:48;11.83;;;4.57;;
4074;SDS011;2052;53.522;9.806;2023-03-23T11:48:21;9.40;;;4.03;;
4074;SDS011;2052;53.522;9.806;2023-03-23T11:50:54;11.73;;;4.10;;
4074;SDS011;2052;53.522;9.806;2023-03-23T11:53:25;11.97;;;3.77;;
4074;SDS011;2052;53.522;9.806;2023-03-23T11:56:00;12.67;;;3.83;;
4074;SDS011;2052;53.522;9.806;2023-03-23T11:58:34;8.37;;;3.97;;
4074;SDS011;2052;53.522;9.806;2023-03-23T12:01:04;9.60;;;4.20;;
4074;SDS011;2052;53.522;9.806;2023-03-23T12:03:39;11.13;;;5.00;;
4074;SDS011;2052;53.522;9.806;2023-03-23T12:06:15;14.40;;;4.50;;
4074;SDS011;2052;53.522;9.806;2023-03-23T12:08:51;13.37;;;5.30;;
4074;SDS011;2052;53.522;9.806;2023-03-23T12:11:25;13.37;;;5.37;;
4074;SDS011;2052;53.522;9.806;2023-03-23T12:13:59;11.50;;;5.50;;
4074;SDS011;2052;53.522;9.806;2023-03-23T12:16:37;11.20;;;4.30;;
4074;SDS011;2052;53.522;9.806;2023-03-23T12:19:18;12.20;;;4.63;;
4074;SDS011;2052;53.522;9.806;2023-03-23T12:21:53;16.27;;;7.10;;
4074;SDS011;2052;53.522;9.806;2023-03-23T12:24:30;15.40;;;5.40;;
4074;SDS011;2052;53.522;9.806;2023-03-23T12:27:05;14.10;;;4.33;;
4074;SDS011;2052;53.522;9.806;2023-03-23T12:29:43;7.90;;;4.73;;
4074;SDS011;2052;53.522;9.806;2023-03-23T12:32:19;13.00;;;4.33;;
4074;SDS011;2052;53.522;9.806;2023-03-23T12:35:04;11.73;;;4.70;;
4074;SDS011;2052;53.522;9.806;2023-03-23T12:37:45;13.57;;;4.40;;
4074;SDS011;2052;53.522;9.806;2023-03-23T12:43:15;9.27;;;4.63;;
4074;SDS011;2052;53.522;9.806;2023-03-23T12:45:55;16.37;;;5.23;;
4074;SDS011;2052;53.522;9.806;2023-03-23T12:48:29;10.00;;;4.40;;
4074;SDS011;2052;53.522;9.806;2023-03-23T12:51:06;13.17;;;4.77;;
4074;SDS011;2052;53.522;9.806;2023-03-23T12:53:38;13.40;;;4.97;;
4074;SDS011;2052;53.522;9.806;2023-03-23T12:56:12;11.50;;;4.60;;
4074;SDS011;2052;53.522;9.806;2023-03-23T12:58:44;13.03;;;4.30;;
4074;SDS011;2052;53.522;9.806;2023-03-23T13:01:14;9.70;;;4.37;;
4074;SDS011;2052;53.522;9.806;2023-03-23T13:03:49;12.10;;;5.00;;
4074;SDS011;2052;53.522;9.806;2023-03-23T13:06:19;6.17;;;3.80;;
4074;SDS011;2052;53.522;9.806;2023-03-23T13:08:49;10.73;;;4.10;;
4074;SDS011;2052;53.522;9.806;2023-03-23T13:11:20;19.93;;;4.57;;
4074;SDS011;2052;53.522;9.806;2023-03-23T13:13:51;12.40;;;4.23;;
4074;SDS011;2052;53.522;9.806;2023-03-23T13:16:25;9.43;;;3.90;;
4074;SDS011;2052;53.522;9.806;2023-03-23T13:19:01;8.03;;;3.70;;
4074;SDS011;2052;53.522;9.806;2023-03-23T13:21:36;9.87;;;3.97;;
4074;SDS011;2052;53.522;9.806;2023-03-23T13:24:08;7.87;;;3.40;;
4074;SDS011;2052;53.522;9.806;2023-03-23T13:26:37;12.87;;;4.10;;
4074;SDS011;2052;53.522;9.806;2023-03-23T13:29:08;8.73;;;3.50;;
4074;SDS011;2052;53.522;9.806;2023-03-23T13:31:40;6.80;;;3.87;;
4074;SDS011;2052;53.522;9.806;2023-03-23T13:34:12;8.00;;;3.50;;
4074;SDS011;2052;53.522;9.806;2023-03-23T13:36:43;7.17;;;4.17;;
4074;SDS011;2052;53.522;9.806;2023-03-23T13:39:17;5.70;;;3.03;;
4074;SDS011;2052;53.522;9.806;2023-03-23T13:41:46;7.07;;;3.30;;
4074;SDS011;2052;53.522;9.806;2023-03-23T13:44:15;4.10;;;3.03;;
4074;SDS011;2052;53.522;9.806;2023-03-23T13:46:56;8.23;;;3.37;;
4074;SDS011;2052;53.522;9.806;2023-03-23T13:49:31;6.00;;;2.90;;
4074;SDS011;2052;53.522;9.806;2023-03-23T13:51:59;8.90;;;3.97;;
4074;SDS011;2052;53.522;9.806;2023-03-23T13:54:40;6.77;;;3.87;;
4074;SDS011;2052;53.522;9.806;2023-03-23T13:57:20;5.53;;;3.87;;
4074;SDS011;2052;53.522;9.806;2023-03-23T13:59:57;6.83;;;3.80;;
4074;SDS011;2052;53.522;9.806;2023-03-23T14:02:33;9.43;;;2.57;;
4074;SDS011;2052;53.522;9.806;2023-03-23T14:05:11;4.70;;;1.93;;
4074;SDS011;2052;53.522;9.806;2023-03-23T14:07:56;7.00;;;2.70;;
4074;SDS011;2052;53.522;9.806;2023-03-23T14:10:25;7.33;;;2.83;;
4074;SDS011;2052;53.522;9.806;2023-03-23T14:12:58;3.90;;;2.60;;
4074;SDS011;2052;53.522;9.806;2023-03-23T14:15:28;3.03;;;2.40;;
4074;SDS011;2052;53.522;9.806;2023-03-23T14:17:56;3.83;;;2.50;;
4074;SDS011;2052;53.522;9.806;2023-03-23T14:20:25;4.30;;;2.50;;
4074;SDS011;2052;53.522;9.806;2023-03-23T14:22:58;6.70;;;2.57;;
4074;SDS011;2052;53.522;9.806;2023-03-23T14:25:26;2.50;;;2.23;;
4074;SDS011;2052;53.522;9.806;2023-03-23T14:27:54;8.40;;;2.20;;
4074;SDS011;2052;53.522;9.806;2023-03-23T14:30:22;2.20;;;2.00;;
4074;SDS011;2052;53.522;9.806;2023-03-23T14:32:50;4.30;;;2.50;;
4074;SDS011;2052;53.522;9.806;2023-03-23T14:35:21;3.23;;;2.20;;
4074;SDS011;2052;53.522;9.806;2023-03-23T14:37:51;5.10;;;2.53;;
4074;SDS011;2052;53.522;9.806;2023-03-23T14:40:25;2.63;;;1.90;;
4074;SDS011;2052;53.522;9.806;2023-03-23T14:42:55;3.93;;;1.80;;
4074;SDS011;2052;53.522;9.806;2023-03-23T14:45:24;2.73;;;2.00;;
4074;SDS011;2052;53.522;9.806;2023-03-23T14:47:51;3.97;;;1.93;;
4074;SDS011;2052;53.522;9.806;2023-03-23T14:50:24;2.20;;;1.97;;
4074;SDS011;2052;53.522;9.806;2023-03-23T14:52:55;3.37;;;1.93;;
4074;SDS011;2052;53.522;9.806;2023-03-23T14:55:27;5.53;;;2.27;;
4074;SDS011;2052;53.522;9.806;2023-03-23T14:58:06;3.90;;;1.97;;
4074;SDS011;2052;53.522;9.806;2023-03-23T15:00:35;12.43;;;2.20;;
4074;SDS011;2052;53.522;9.806;2023-03-23T15:03:03;5.43;;;2.60;;
4074;SDS011;2052;53.522;9.806;2023-03-23T15:05:33;4.10;;;2.37;;
4074;SDS011;2052;53.522;9.806;2023-03-23T15:08:02;4.67;;;2.60;;
4074;SDS011;2052;53.522;9.806;2023-03-23T15:10:30;5.90;;;2.20;;
4074;SDS011;2052;53.522;9.806;2023-03-23T15:12:56;3.87;;;2.10;;
4074;SDS011;2052;53.522;9.806;2023-03-23T15:15:25;5.50;;;2.20;;
4074;SDS011;2052;53.522;9.806;2023-03-23T15:17:54;3.50;;;2.20;;
4074;SDS011;2052;53.522;9.806;2023-03-23T15:20:22;5.13;;;2.90;;
4074;SDS011;2052;53.522;9.806;2023-03-23T15:22:51;4.27;;;2.00;;
4074;SDS011;2052;53.522;9.806;2023-03-23T15:25:19;4.60;;;3.17;;
4074;SDS011;2052;53.522;9.806;2023-03-23T15:27:50;10.50;;;2.40;;